createdAt,value
2018-09-19T00:00:59.136Z,11.20
2018-09-19T00:03:27.833Z,10.13
2018-09-19T00:05:56.460Z,12.53
2018-09-19T00:08:25.048Z,11.27
2018-09-19T00:10:53.702Z,11.40
2018-09-19T00:13:22.329Z,11.47
2018-09-19T00:15:50.956Z,11.57
2018-09-19T00:18:19.575Z,11.33
2018-09-19T00:20:48.230Z,12.13
2018-09-19T00:23:16.870Z,10.17
2018-09-19T00:25:45.509Z,11.07
2018-09-19T00:28:14.300Z,12.40
2018-09-19T00:30:42.915Z,11.90
2018-09-19T00:33:11.527Z,11.17
2018-09-19T00:35:40.161Z,12.10
2018-09-19T00:38:08.795Z,10.57
2018-09-19T00:40:37.424Z,10.27
2018-09-19T00:43:06.060Z,11.47
2018-09-19T00:45:34.710Z,12.03
2018-09-19T00:48:04.403Z,9.83
2018-09-19T00:50:33.108Z,10.10
2018-09-19T00:53:01.780Z,10.33
2018-09-19T00:55:30.389Z,11.10
2018-09-19T00:57:59.324Z,10.53
2018-09-19T01:00:28.207Z,12.20
2018-09-19T01:02:56.841Z,11.40
2018-09-19T01:05:25.467Z,10.33
2018-09-19T01:07:54.086Z,9.30
2018-09-19T01:10:22.739Z,10.50
2018-09-19T01:12:51.383Z,10.73
2018-09-19T01:15:19.991Z,10.33
2018-09-19T01:17:48.616Z,10.47
2018-09-19T01:20:17.256Z,9.37
2018-09-19T01:22:45.871Z,10.20
2018-09-19T01:25:14.529Z,9.90
2018-09-19T01:27:43.162Z,10.40
2018-09-19T01:30:11.911Z,10.23
2018-09-19T01:32:40.564Z,11.13
2018-09-19T01:35:09.231Z,8.53
2018-09-19T01:37:37.878Z,10.20
2018-09-19T01:40:06.524Z,9.33
2018-09-19T01:42:35.179Z,10.70
2018-09-19T01:45:03.817Z,8.07
2018-09-19T01:47:32.706Z,8.23
2018-09-19T01:50:01.301Z,8.23
2018-09-19T01:52:29.956Z,9.40
2018-09-19T01:54:58.586Z,10.03
2018-09-19T01:57:27.223Z,9.97
2018-09-19T01:59:55.859Z,8.63
2018-09-19T02:02:24.514Z,8.60
2018-09-19T02:04:53.359Z,9.30
2018-09-19T02:07:21.997Z,9.07
2018-09-19T02:09:50.646Z,8.97
2018-09-19T02:12:19.282Z,9.80
2018-09-19T02:14:47.903Z,9.33
2018-09-19T02:17:16.620Z,8.63
2018-09-19T02:19:45.243Z,9.60
2018-09-19T02:22:13.893Z,8.53
2018-09-19T02:24:42.528Z,8.33
2018-09-19T02:27:11.141Z,8.90
2018-09-19T02:29:39.888Z,8.30
2018-09-19T02:32:08.502Z,9.63
2018-09-19T02:34:37.117Z,8.50
2018-09-19T02:37:05.702Z,7.90
2018-09-19T02:39:34.347Z,7.50
2018-09-19T02:42:03.040Z,9.10
2018-09-19T02:44:31.647Z,8.17
2018-09-19T02:47:00.275Z,9.77
2018-09-19T02:49:28.945Z,8.50
2018-09-19T02:51:58.289Z,9.70
2018-09-19T02:54:28.240Z,8.03
2018-09-19T02:56:56.886Z,8.90
2018-09-19T02:59:25.676Z,11.10
2018-09-19T03:01:54.400Z,9.23
2018-09-19T03:04:23.128Z,8.93
2018-09-19T03:06:51.767Z,9.90
2018-09-19T03:09:21.362Z,10.40
2018-09-19T03:11:49.995Z,9.00
2018-09-19T03:14:18.622Z,10.37
2018-09-19T03:16:47.268Z,9.40
2018-09-19T03:19:15.909Z,8.90
2018-09-19T03:21:44.539Z,8.90
2018-09-19T03:24:13.189Z,9.60
2018-09-19T03:26:41.791Z,9.30
2018-09-19T03:29:10.384Z,9.67
2018-09-19T03:31:39.007Z,11.80
2018-09-19T03:34:07.613Z,10.40
2018-09-19T03:36:36.242Z,9.20
2018-09-19T03:39:07.614Z,9.50
2018-09-19T03:41:36.240Z,10.60
2018-09-19T03:44:05.068Z,11.90
2018-09-19T03:46:33.695Z,10.00
2018-09-19T03:49:02.356Z,11.10
2018-09-19T03:51:30.985Z,11.20
2018-09-19T03:53:59.641Z,11.63
2018-09-19T03:56:28.271Z,11.37
2018-09-19T03:58:56.890Z,10.53
2018-09-19T04:01:25.538Z,11.23
2018-09-19T04:03:54.179Z,11.13
2018-09-19T04:06:22.835Z,11.60
2018-09-19T04:08:51.448Z,11.53
2018-09-19T04:11:20.096Z,12.50
2018-09-19T04:13:48.727Z,12.33
2018-09-19T04:16:17.410Z,12.10
2018-09-19T04:18:46.078Z,12.93
2018-09-19T04:21:14.943Z,10.70
2018-09-19T04:23:43.787Z,11.00
2018-09-19T04:26:12.417Z,11.47
2018-09-19T04:28:41.441Z,11.47
2018-09-19T04:31:10.085Z,12.97
2018-09-19T04:33:38.723Z,13.47
2018-09-19T04:36:07.353Z,13.00
2018-09-19T04:38:36.011Z,11.70
2018-09-19T04:41:04.754Z,12.47
2018-09-19T04:43:33.460Z,12.53
2018-09-19T04:46:02.488Z,12.20
2018-09-19T04:48:37.888Z,12.93
2018-09-19T04:51:07.316Z,11.30
2018-09-19T04:53:35.962Z,11.00
2018-09-19T04:56:04.616Z,11.73
2018-09-19T04:58:33.310Z,12.27
2018-09-19T05:01:01.986Z,13.80
2018-09-19T05:03:30.627Z,12.53
2018-09-19T05:05:59.503Z,11.30
2018-09-19T05:08:28.138Z,11.60
2018-09-19T05:10:56.835Z,11.90
2018-09-19T05:13:25.575Z,9.87
2018-09-19T05:15:54.191Z,10.53
2018-09-19T05:18:22.952Z,10.80
2018-09-19T05:20:51.647Z,10.33
2018-09-19T05:23:20.322Z,10.13
2018-09-19T05:25:48.970Z,9.33
2018-09-19T05:28:18.201Z,8.87
2018-09-19T05:30:46.851Z,9.40
2018-09-19T05:33:15.508Z,9.90
2018-09-19T05:35:44.328Z,9.80
2018-09-19T05:38:13.163Z,9.77
2018-09-19T05:40:41.900Z,8.67
2018-09-19T05:43:10.830Z,8.53
2018-09-19T05:45:39.591Z,8.30
2018-09-19T05:48:08.325Z,7.77
2018-09-19T05:50:37.149Z,10.60
2018-09-19T05:53:05.782Z,9.30
2018-09-19T05:55:35.326Z,8.57
2018-09-19T05:58:04.009Z,9.33
2018-09-19T06:00:32.664Z,7.97
2018-09-19T06:03:01.426Z,9.50
2018-09-19T06:05:30.068Z,9.90
2018-09-19T06:07:58.735Z,8.93
2018-09-19T06:10:29.264Z,7.63
2018-09-19T06:12:58.000Z,7.93
2018-09-19T06:15:26.650Z,9.13
2018-09-19T06:17:55.288Z,7.37
2018-09-19T06:20:24.179Z,7.57
2018-09-19T06:22:52.807Z,7.63
2018-09-19T06:25:21.576Z,8.60
2018-09-19T06:27:50.195Z,8.47
2018-09-19T06:30:18.892Z,8.97
2018-09-19T06:32:47.565Z,7.70
2018-09-19T06:35:16.208Z,8.63
2018-09-19T06:37:44.827Z,8.20
2018-09-19T06:40:13.618Z,7.20
2018-09-19T06:42:42.240Z,8.33
2018-09-19T06:45:10.869Z,8.53
2018-09-19T06:47:39.642Z,8.03
2018-09-19T06:50:09.036Z,7.80
2018-09-19T06:52:38.323Z,7.97
2018-09-19T06:55:06.946Z,7.43
2018-09-19T06:57:35.615Z,8.10
2018-09-19T07:00:04.915Z,7.70
2018-09-19T07:02:33.750Z,8.63
2018-09-19T07:05:02.392Z,7.97
2018-09-19T07:07:32.339Z,7.50
2018-09-19T07:10:00.948Z,8.13
2018-09-19T07:12:29.631Z,7.23
2018-09-19T07:14:58.291Z,7.90
2018-09-19T07:17:26.966Z,6.13
2018-09-19T07:19:55.658Z,7.83
2018-09-19T07:22:24.938Z,7.53
2018-09-19T07:24:53.600Z,7.63
2018-09-19T07:27:25.507Z,7.20
2018-09-19T07:29:55.185Z,7.70
2018-09-19T07:32:23.864Z,8.13
2018-09-19T07:34:52.528Z,7.90
2018-09-19T07:37:22.096Z,8.63
2018-09-19T07:39:51.458Z,7.00
2018-09-19T07:42:20.160Z,8.83
2018-09-19T07:44:50.361Z,8.17
2018-09-19T07:47:19.013Z,8.40
2018-09-19T07:49:49.330Z,7.83
2018-09-19T07:52:17.983Z,6.83
2018-09-19T07:54:48.154Z,7.80
2018-09-19T07:57:17.456Z,7.20
2018-09-19T07:59:49.892Z,8.53
2018-09-19T08:02:19.008Z,7.33
2018-09-19T08:04:49.196Z,7.40
2018-09-19T08:07:18.048Z,6.87
2018-09-19T08:09:48.212Z,7.33
2018-09-19T08:12:16.945Z,7.20
2018-09-19T08:14:46.042Z,7.67
2018-09-19T08:17:15.572Z,7.73
2018-09-19T08:19:44.277Z,8.73
2018-09-19T08:22:12.960Z,8.60
2018-09-19T08:24:42.407Z,8.60
2018-09-19T08:27:11.046Z,7.80
2018-09-19T08:29:39.683Z,7.80
2018-09-19T08:32:08.486Z,6.60
2018-09-19T08:34:37.945Z,6.60
2018-09-19T08:37:06.624Z,5.70
2018-09-19T08:39:35.710Z,6.73
2018-09-19T08:42:04.439Z,7.83
2018-09-19T08:44:33.126Z,5.80
2018-09-19T08:47:01.836Z,6.63
2018-09-19T08:49:31.634Z,6.20
2018-09-19T08:52:00.386Z,6.20
2018-09-19T08:54:29.082Z,6.37
2018-09-19T08:56:59.251Z,6.30
2018-09-19T08:59:27.881Z,6.30
2018-09-19T09:01:56.972Z,7.53
2018-09-19T09:04:25.713Z,5.47
2018-09-19T09:06:55.935Z,7.20
2018-09-19T09:09:24.600Z,6.03
2018-09-19T09:11:54.822Z,5.83
2018-09-19T09:14:23.638Z,6.50
2018-09-19T09:16:52.598Z,6.67
2018-09-19T09:19:22.172Z,6.13
2018-09-19T09:21:50.836Z,6.17
2018-09-19T09:24:20.099Z,5.33
2018-09-19T09:26:49.203Z,7.70
2018-09-19T09:29:18.566Z,5.90
2018-09-19T09:31:47.223Z,6.20
2018-09-19T09:34:15.951Z,6.80
2018-09-19T09:36:44.655Z,6.60
2018-09-19T09:39:13.401Z,6.17
2018-09-19T09:41:42.622Z,6.13
2018-09-19T09:44:11.256Z,5.70
2018-09-19T09:46:40.297Z,6.00
2018-09-19T09:49:10.561Z,7.30
2018-09-19T09:51:39.215Z,5.97
2018-09-19T09:54:07.865Z,5.90
2018-09-19T09:56:37.234Z,4.63
2018-09-19T09:59:06.092Z,4.67
2018-09-19T10:01:35.123Z,5.47
2018-09-19T10:04:03.839Z,4.33
2018-09-19T10:06:32.558Z,5.60
2018-09-19T10:09:03.076Z,4.60
2018-09-19T10:11:31.835Z,4.53
2018-09-19T10:14:02.527Z,5.57
2018-09-19T10:16:31.231Z,4.53
2018-09-19T10:19:01.676Z,4.90
2018-09-19T10:21:30.800Z,5.33
2018-09-19T10:23:59.437Z,5.30
2018-09-19T10:26:28.043Z,4.70
2018-09-19T10:28:56.636Z,4.10
2018-09-19T10:31:26.291Z,3.70
2018-09-19T10:33:55.973Z,4.03
2018-09-19T10:36:25.194Z,4.60
2018-09-19T10:38:54.040Z,4.87
2018-09-19T10:41:23.956Z,4.30
2018-09-19T10:43:53.357Z,4.57
2018-09-19T10:46:22.019Z,4.93
2018-09-19T10:48:50.694Z,5.50
2018-09-19T10:51:19.791Z,4.67
2018-09-19T10:53:48.462Z,4.20
2018-09-19T10:56:17.126Z,4.70
2018-09-19T10:58:46.010Z,4.10
2018-09-19T11:01:15.080Z,3.77
2018-09-19T11:03:43.933Z,3.70
2018-09-19T11:06:12.584Z,3.90
2018-09-19T11:08:42.419Z,4.30
2018-09-19T11:11:11.100Z,4.37
2018-09-19T11:13:39.780Z,3.10
2018-09-19T11:16:08.495Z,3.60
2018-09-19T11:18:37.633Z,3.90
2018-09-19T11:21:11.819Z,2.90
2018-09-19T11:23:40.915Z,3.67
2018-09-19T11:26:09.709Z,3.63
2018-09-19T11:28:38.891Z,3.83
2018-09-19T11:31:07.692Z,3.50
2018-09-19T11:33:36.362Z,3.47
2018-09-19T11:36:05.015Z,3.33
2018-09-19T11:38:35.435Z,3.40
2018-09-19T11:41:04.104Z,3.20
2018-09-19T11:43:33.365Z,3.30
2018-09-19T11:46:01.979Z,3.80
2018-09-19T11:48:30.597Z,4.70
2018-09-19T11:50:59.493Z,3.43
2018-09-19T11:53:29.292Z,3.60
2018-09-19T11:56:00.793Z,6.60
2018-09-19T11:58:30.376Z,3.57
2018-09-19T12:00:59.471Z,3.67
2018-09-19T12:03:28.703Z,3.43
2018-09-19T12:05:58.189Z,3.63
2018-09-19T12:08:29.541Z,6.50
2018-09-19T12:10:58.242Z,3.90
2018-09-19T12:13:28.247Z,3.77
2018-09-19T12:15:56.862Z,3.50
2018-09-19T12:18:27.427Z,3.60
2018-09-19T12:20:56.189Z,3.63
2018-09-19T12:23:24.804Z,3.67
2018-09-19T12:25:53.432Z,4.43
2018-09-19T12:28:22.068Z,3.60
2018-09-19T12:30:50.705Z,4.20
2018-09-19T12:33:19.596Z,3.70
2018-09-19T12:35:49.852Z,3.33
2018-09-19T12:38:18.492Z,3.70
2018-09-19T12:40:47.141Z,2.70
2018-09-19T12:43:18.726Z,3.40
2018-09-19T12:45:47.327Z,3.47
2018-09-19T12:48:16.304Z,3.10
2018-09-19T12:50:45.144Z,3.70
2018-09-19T12:53:13.789Z,4.30
2018-09-19T12:55:42.508Z,3.17
2018-09-19T12:58:11.118Z,3.20
2018-09-19T13:00:43.629Z,4.03
2018-09-19T13:03:12.219Z,3.40
2018-09-19T13:05:41.857Z,3.50
2018-09-19T13:08:12.455Z,2.97
2018-09-19T13:10:41.108Z,2.70
2018-09-19T13:13:09.687Z,3.07
2018-09-19T13:15:38.500Z,2.87
2018-09-19T13:18:08.524Z,2.80
2018-09-19T13:20:37.156Z,4.70
2018-09-19T13:23:05.784Z,4.90
2018-09-19T13:25:34.646Z,5.20
2018-09-19T13:28:03.812Z,7.03
2018-09-19T13:30:32.779Z,2.93
2018-09-19T13:33:04.780Z,3.47
2018-09-19T13:35:33.547Z,2.70
2018-09-19T13:38:02.606Z,2.80
2018-09-19T13:40:31.464Z,8.80
2018-09-19T13:43:00.099Z,3.30
2018-09-19T13:45:31.313Z,4.20
2018-09-19T13:48:00.674Z,3.30
2018-09-19T13:50:41.358Z,4.20
2018-09-19T13:53:10.441Z,10.53
2018-09-19T13:55:39.432Z,4.33
2018-09-19T13:58:09.161Z,4.53
2018-09-19T14:00:37.778Z,4.00
2018-09-19T14:03:06.875Z,4.03
2018-09-19T14:05:36.017Z,5.20
2018-09-19T14:08:06.133Z,3.70
2018-09-19T14:10:36.145Z,3.70
2018-09-19T14:13:06.966Z,3.70
2018-09-19T14:15:36.040Z,3.33
2018-09-19T14:18:07.286Z,3.67
2018-09-19T14:20:36.119Z,3.20
2018-09-19T14:23:05.695Z,5.50
2018-09-19T14:25:36.791Z,5.90
2018-09-19T14:28:07.242Z,4.33
2018-09-19T14:30:36.252Z,4.33
2018-09-19T14:33:05.051Z,2.80
2018-09-19T14:35:34.010Z,4.47
2018-09-19T14:38:03.022Z,4.10
2018-09-19T14:40:34.861Z,3.50
2018-09-19T14:43:05.016Z,5.00
2018-09-19T14:45:33.847Z,3.20
2018-09-19T14:48:03.528Z,4.33
2018-09-19T14:50:32.684Z,3.77
2018-09-19T14:53:02.393Z,3.17
2018-09-19T14:55:33.327Z,5.07
2018-09-19T14:58:01.981Z,4.33
2018-09-19T15:00:30.764Z,3.97
2018-09-19T15:03:02.641Z,3.40
2018-09-19T15:05:32.665Z,4.23
2018-09-19T15:08:02.078Z,3.40
2018-09-19T15:10:31.723Z,3.80
2018-09-19T15:13:00.836Z,3.60
2018-09-19T15:15:30.032Z,4.00
2018-09-19T15:18:00.138Z,3.67
2018-09-19T15:20:31.266Z,3.17
2018-09-19T15:23:00.386Z,3.40
2018-09-19T15:25:30.019Z,3.53
2018-09-19T15:27:59.449Z,3.60
2018-09-19T15:30:31.208Z,3.50
2018-09-19T15:33:00.025Z,3.50
2018-09-19T15:35:29.111Z,3.57
2018-09-19T15:37:58.424Z,3.73
2018-09-19T15:40:27.514Z,3.17
2018-09-19T15:42:56.489Z,3.63
2018-09-19T15:45:25.395Z,3.37
2018-09-19T15:47:54.866Z,3.90
2018-09-19T15:50:23.908Z,5.33
2018-09-19T15:52:53.252Z,6.10
2018-09-19T15:55:22.235Z,5.00
2018-09-19T15:57:51.239Z,5.10
2018-09-19T16:00:20.128Z,4.20
2018-09-19T16:02:49.475Z,4.10
2018-09-19T16:05:18.997Z,4.00
2018-09-19T16:07:48.787Z,3.97
2018-09-19T16:10:17.585Z,4.60
2018-09-19T16:12:46.697Z,4.07
2018-09-19T16:15:17.336Z,4.93
2018-09-19T16:17:48.134Z,4.17
2018-09-19T16:20:17.024Z,5.33
2018-09-19T16:22:46.453Z,4.60
2018-09-19T16:25:15.307Z,5.33
2018-09-19T16:27:44.123Z,4.90
2018-09-19T16:30:12.913Z,4.50
2018-09-19T16:32:42.278Z,4.90
2018-09-19T16:35:11.509Z,5.40
2018-09-19T16:37:40.398Z,5.10
2018-09-19T16:40:09.505Z,4.40
2018-09-19T16:42:38.398Z,4.93
2018-09-19T16:45:07.619Z,4.73
2018-09-19T16:47:37.044Z,5.13
2018-09-19T16:50:06.409Z,5.00
2018-09-19T16:52:35.110Z,4.80
2018-09-19T16:55:04.096Z,4.20
2018-09-19T16:57:33.236Z,14.00
2018-09-19T17:00:01.849Z,5.33
2018-09-19T17:02:31.807Z,6.10
2018-09-19T17:05:00.671Z,5.20
2018-09-19T17:07:29.437Z,4.87
2018-09-19T17:09:58.167Z,5.70
2018-09-19T17:12:27.656Z,5.40
2018-09-19T17:14:56.435Z,8.47
2018-09-19T17:17:25.144Z,6.70
2018-09-19T17:19:53.788Z,5.07
2018-09-19T17:22:23.139Z,4.93
2018-09-19T17:24:52.001Z,5.27
2018-09-19T17:27:20.795Z,5.73
2018-09-19T17:29:49.706Z,7.90
2018-09-19T17:32:18.573Z,8.27
2018-09-19T17:34:47.406Z,18.27
2018-09-19T17:37:16.283Z,29.07
2018-09-19T17:39:44.926Z,35.30
2018-09-19T17:42:13.684Z,38.23
2018-09-19T17:44:43.302Z,10.40
2018-09-19T17:47:11.948Z,17.30
2018-09-19T17:49:40.907Z,13.97
2018-09-19T17:52:09.596Z,7.10
2018-09-19T17:54:38.827Z,6.53
2018-09-19T17:57:09.508Z,7.10
2018-09-19T17:59:38.898Z,6.37
2018-09-19T18:02:07.543Z,6.60
2018-09-19T18:04:36.593Z,8.30
2018-09-19T18:07:05.501Z,6.50
2018-09-19T18:09:34.135Z,7.80
2018-09-19T18:12:02.769Z,7.00
2018-09-19T18:14:31.512Z,7.10
2018-09-19T18:17:00.191Z,17.57
2018-09-19T18:19:29.624Z,9.03
2018-09-19T18:21:58.692Z,10.10
2018-09-19T18:24:28.006Z,6.07
2018-09-19T18:26:58.378Z,9.40
2018-09-19T18:29:28.088Z,7.50
2018-09-19T18:31:56.830Z,6.37
2018-09-19T18:34:26.260Z,7.23
2018-09-19T18:36:54.932Z,8.80
2018-09-19T18:39:23.559Z,6.80
2018-09-19T18:41:52.203Z,7.40
2018-09-19T18:44:20.841Z,6.77
2018-09-19T18:46:49.548Z,7.23
2018-09-19T18:49:18.207Z,7.03
2018-09-19T18:51:46.835Z,7.30
2018-09-19T18:54:19.731Z,6.50
2018-09-19T18:56:48.336Z,6.37
2018-09-19T18:59:16.988Z,6.13
2018-09-19T19:01:45.714Z,7.00
2018-09-19T19:04:14.354Z,7.43
2018-09-19T19:06:43.286Z,7.73
2018-09-19T19:09:12.719Z,6.50
2018-09-19T19:11:41.708Z,7.07
2018-09-19T19:14:10.911Z,7.10
2018-09-19T19:16:39.633Z,6.93
2018-09-19T19:19:09.069Z,6.90
2018-09-19T19:21:37.794Z,8.03
2018-09-19T19:24:06.478Z,9.20
2018-09-19T19:26:35.164Z,8.40
2018-09-19T19:29:04.212Z,7.13
2018-09-19T19:31:33.045Z,7.50
2018-09-19T19:34:01.656Z,7.83
2018-09-19T19:36:30.313Z,7.43
2018-09-19T19:38:59.007Z,6.23
2018-09-19T19:41:27.632Z,7.07
2018-09-19T19:43:56.328Z,6.70
2018-09-19T19:46:25.086Z,7.20
2018-09-19T19:48:53.762Z,6.50
2018-09-19T19:51:24.035Z,6.47
2018-09-19T19:53:52.707Z,6.37
2018-09-19T19:56:21.476Z,7.40
2018-09-19T19:58:50.142Z,11.77
2018-09-19T20:01:18.899Z,8.57
2018-09-19T20:03:47.695Z,9.70
2018-09-19T20:06:16.395Z,12.30
2018-09-19T20:08:45.041Z,8.53
2018-09-19T20:11:13.777Z,8.67
2018-09-19T20:13:42.602Z,6.97
2018-09-19T20:16:11.263Z,7.60
2018-09-19T20:18:39.994Z,7.60
2018-09-19T20:21:09.188Z,7.73
2018-09-19T20:23:37.863Z,7.07
2018-09-19T20:26:06.532Z,6.80
2018-09-19T20:28:36.053Z,7.20
2018-09-19T20:31:04.738Z,6.80
2018-09-19T20:33:33.424Z,7.43
2018-09-19T20:36:02.264Z,7.13
2018-09-19T20:38:31.038Z,7.13
2018-09-19T20:41:00.006Z,16.87
2018-09-19T20:43:28.711Z,8.57
2018-09-19T20:45:57.395Z,7.50
2018-09-19T20:48:26.176Z,7.57
2018-09-19T20:50:54.893Z,11.40
2018-09-19T20:53:23.654Z,8.07
2018-09-19T20:55:52.854Z,12.80
2018-09-19T20:58:21.825Z,8.30
2018-09-19T21:00:50.747Z,7.27
2018-09-19T21:03:19.404Z,6.30
2018-09-19T21:05:48.170Z,7.10
2018-09-19T21:08:16.864Z,6.70
2018-09-19T21:10:45.505Z,6.40
2018-09-19T21:13:14.192Z,6.47
2018-09-19T21:15:42.852Z,6.27
2018-09-19T21:18:11.819Z,6.67
2018-09-19T21:20:40.497Z,6.30
2018-09-19T21:23:09.153Z,7.80
2018-09-19T21:25:37.979Z,7.53
2018-09-19T21:28:06.588Z,6.83
2018-09-19T21:30:35.235Z,6.60
2018-09-19T21:33:03.911Z,6.70
2018-09-19T21:35:32.591Z,6.13
2018-09-19T21:38:01.265Z,7.60
2018-09-19T21:40:29.946Z,6.57
2018-09-19T21:42:58.638Z,6.77
2018-09-19T21:45:27.352Z,7.13
2018-09-19T21:47:56.319Z,7.00
2018-09-19T21:50:25.067Z,5.90
2018-09-19T21:52:54.389Z,6.67
2018-09-19T21:55:23.422Z,6.23
2018-09-19T21:57:52.438Z,5.53
2018-09-19T22:00:21.247Z,6.53
2018-09-19T22:02:49.927Z,6.43
2018-09-19T22:05:18.813Z,6.50
2018-09-19T22:07:47.463Z,7.83
2018-09-19T22:10:16.115Z,7.30
2018-09-19T22:12:44.737Z,5.97
2018-09-19T22:15:13.364Z,6.10
2018-09-19T22:17:41.987Z,6.00
2018-09-19T22:20:10.659Z,6.57
2018-09-19T22:22:39.417Z,6.23
2018-09-19T22:25:08.066Z,7.70
2018-09-19T22:27:36.729Z,7.50
2018-09-19T22:30:05.347Z,7.37
2018-09-19T22:32:34.040Z,6.27
2018-09-19T22:35:02.689Z,5.87
2018-09-19T22:37:31.322Z,6.70
2018-09-19T22:40:00.113Z,7.73
2018-09-19T22:42:28.780Z,7.87
2018-09-19T22:44:57.409Z,7.00
2018-09-19T22:47:26.048Z,7.67
2018-09-19T22:49:54.916Z,7.90
2018-09-19T22:52:23.570Z,8.40
2018-09-19T22:54:52.369Z,8.13
2018-09-19T22:57:21.016Z,9.87
2018-09-19T22:59:49.654Z,9.30
2018-09-19T23:02:18.348Z,9.40
2018-09-19T23:04:46.989Z,9.47
2018-09-19T23:07:15.641Z,8.37
2018-09-19T23:09:44.450Z,10.37
2018-09-19T23:12:13.283Z,8.73
2018-09-19T23:14:41.942Z,10.43
2018-09-19T23:17:12.155Z,10.43
2018-09-19T23:19:40.924Z,10.07
2018-09-19T23:22:10.099Z,11.00
2018-09-19T23:24:38.855Z,10.30
2018-09-19T23:27:07.607Z,10.70
2018-09-19T23:29:37.121Z,9.27
2018-09-19T23:32:07.082Z,10.83
2018-09-19T23:34:35.711Z,10.33
2018-09-19T23:37:04.364Z,10.30
2018-09-19T23:39:33.056Z,11.70
2018-09-19T23:42:01.734Z,10.70
2018-09-19T23:44:31.227Z,10.83
2018-09-19T23:47:01.193Z,10.80
2018-09-19T23:49:29.884Z,10.17
2018-09-19T23:51:58.516Z,9.70
2018-09-19T23:54:27.233Z,10.27
2018-09-19T23:56:55.868Z,11.90
2018-09-19T23:59:25.448Z,10.90
